»·PEaware :: DCM205 KSUN-KBZN

DCM205 :: KSUN-KBZN

FLIGHT INFORMATION

Flight Status: Arrived
Operator:
DotCom
More flights by this operator :: More flights under this callsign
Pilot: Chris S. (2433)
Aircraft: DEHAVILLAND DASH 8 400
(DH8D)
More flights by this aircraft type
Origin: KSUN Friedman Meml
United States
Destination: KBZN Gallatin
United States
More flights between these airports :: More routes between these airports
Route: AUREL3 REAPS DLN BZN
File this flight plan on PilotEdge
Remarks:
Altitude:
(Current/Filed)
23,000ft
Speed:
(Current/Filed)
350kts
Departed: 31-Dec-20 12:47 PM
Arrived: 31-Dec-20 01:36 PM
Distance/Time
Traveled:
191nm/0:49
Distance/Time
To Go:
Arrived

Flight Plot

Page will automatically refresh every two minutes.

Flight plan parsing failed; only flown route is shown


Map Options




Map Legend


Flown Route
Filed Route
Departure Airport
Arrival Airport
Navaid (VOR, NDB)
Fix

Horizontal Profiles

Position Reports

Time Latitude Longitude Heading Altitude Ground
Speed
31-Dec-20 12:30 43.507295 -114.301099 160 5319ft 0kts
31-Dec-20 12:31 43.507295 -114.301099 160 5319ft 0kts
31-Dec-20 12:32 43.507295 -114.301099 160 5319ft 0kts
31-Dec-20 12:33 43.507295 -114.301099 160 5319ft 0kts
31-Dec-20 12:34 43.507295 -114.301099 160 5319ft 0kts
31-Dec-20 12:35 43.507295 -114.301099 160 5319ft 0kts
31-Dec-20 12:36 43.507295 -114.301099 160 5319ft 0kts
31-Dec-20 12:37 43.507295 -114.301099 160 5319ft 0kts
31-Dec-20 12:38 43.507295 -114.301099 160 5319ft 0kts
31-Dec-20 12:39 43.507295 -114.301099 160 5319ft 0kts
31-Dec-20 12:40 43.507295 -114.301099 160 5319ft 0kts
31-Dec-20 12:41 43.507295 -114.301099 160 5319ft 0kts
31-Dec-20 12:42 43.507419 -114.300743 19 5319ft 2kts
31-Dec-20 12:43 43.508572 -114.301722 325 5319ft 8kts
31-Dec-20 12:44 43.510764 -114.303847 323 5320ft 8kts
31-Dec-20 12:45 43.511620 -114.304330 24 5319ft 4kts
31-Dec-20 12:46 43.503170 -114.294959 144 5310ft 131kts
31-Dec-20 12:47 43.465307 -114.271414 165 7244ft 173kts
31-Dec-20 12:48 43.418267 -114.251198 161 10250ft 171kts
31-Dec-20 12:49 43.367568 -114.229259 166 12332ft 200kts
31-Dec-20 12:50 43.307517 -114.201051 154 14005ft 240kts
31-Dec-20 12:51 43.243734 -114.154089 152 15397ft 271kts
31-Dec-20 12:52 43.212377 -114.069854 66 16877ft 277kts
31-Dec-20 12:53 43.273658 -114.012239 21 18107ft 277kts
31-Dec-20 12:54 43.343756 -113.964152 24 19231ft 285kts
31-Dec-20 12:55 43.414809 -113.912940 25 20297ft 290kts
31-Dec-20 12:56 43.486765 -113.861163 25 21270ft 293kts
31-Dec-20 12:57 43.559019 -113.808994 25 22270ft 291kts
31-Dec-20 12:58 43.630944 -113.756817 25 23078ft 296kts
31-Dec-20 12:59 43.706632 -113.701594 25 23160ft 319kts
31-Dec-20 13:00 43.787176 -113.642953 25 23156ft 336kts
31-Dec-20 13:01 43.871565 -113.581349 26 23148ft 349kts
31-Dec-20 13:02 43.958462 -113.517709 26 23142ft 356kts
31-Dec-20 13:03 44.046188 -113.453196 26 23137ft 360kts
31-Dec-20 13:04 44.134949 -113.387785 26 23132ft 361kts
31-Dec-20 13:05 44.223604 -113.322209 26 23128ft 362kts
31-Dec-20 13:06 44.312568 -113.256150 26 23124ft 363kts
31-Dec-20 13:07 44.401401 -113.189894 26 23134ft 363kts
31-Dec-20 13:08 44.490553 -113.123361 26 23133ft 363kts
31-Dec-20 13:09 44.579565 -113.056570 26 23121ft 364kts
31-Dec-20 13:10 44.668776 -112.989408 26 23114ft 364kts
31-Dec-20 13:11 44.757649 -112.922260 26 23105ft 364kts
31-Dec-20 13:12 44.846629 -112.854821 26 23095ft 364kts
31-Dec-20 13:13 44.935851 -112.786937 26 23083ft 364kts
31-Dec-20 13:14 45.024736 -112.719045 26 23070ft 364kts
31-Dec-20 13:15 45.113807 -112.650743 26 23051ft 364kts
31-Dec-20 13:16 45.203000 -112.582252 26 23047ft 364kts
31-Dec-20 13:17 45.274033 -112.486256 61 21821ft 359kts
31-Dec-20 13:18 45.320938 -112.361367 59 20344ft 358kts
31-Dec-20 13:19 45.369842 -112.237771 59 18846ft 358kts
31-Dec-20 13:20 45.417963 -112.113938 60 17337ft 357kts
31-Dec-20 13:21 45.465507 -111.990848 57 15835ft 353kts
31-Dec-20 13:22 45.511852 -111.868159 61 14356ft 352kts
31-Dec-20 13:23 45.540046 -111.737005 75 12830ft 341kts
31-Dec-20 13:24 45.560260 -111.608424 77 11324ft 325kts
31-Dec-20 13:25 45.580394 -111.485177 76 10182ft 309kts
31-Dec-20 13:27 45.598423 -111.371694 77 9196ft 283kts
31-Dec-20 13:28 45.645224 -111.301533 8 9007ft 237kts
31-Dec-20 13:29 45.705321 -111.310223 343 8996ft 201kts
31-Dec-20 13:30 45.755202 -111.331391 337 8992ft 172kts
31-Dec-20 13:31 45.802333 -111.346850 6 8097ft 196kts
31-Dec-20 13:32 45.841497 -111.301700 69 6610ft 164kts
31-Dec-20 13:33 45.838502 -111.240330 119 5967ft 159kts
31-Dec-20 13:34 45.810357 -111.196958 136 5112ft 139kts
31-Dec-20 13:35 45.783623 -111.160215 132 4479ft 105kts
31-Dec-20 13:36 45.775014 -111.149463 220 4478ft 8kts
31-Dec-20 13:37 45.774335 -111.151428 313 4478ft 9kts
31-Dec-20 13:38 45.777670 -111.156085 316 4478ft 15kts
31-Dec-20 13:39 45.778325 -111.159381 250 4478ft 5kts

Navigation Log

Ident Type
Flight plan parsing failed, navigation log unavailable